Time;durP1;ratioP1;P1;durP2;ratioP2;P2;SDS_P1;SDS_P2;PMS_P1;PMS_P2;Temp;Humidity;BMP_temperature;BMP_pressure;BME280_temperature;BME280_humidity;BME280_pressure;Samples;Min_cycle;Max_cycle;Signal;HPM_P1;HPM_P2
2023/08/18 00:00:36;;;;;;;6.60;5.60;;;21.40;99.90;;;;;;4991653;28;20190;-86
2023/08/18 00:03:01;;;;;;;8.27;6.33;;;21.40;99.90;;;;;;5006965;28;20206;-84
2023/08/18 00:05:27;;;;;;;8.40;5.37;;;21.60;99.90;;;;;;4995175;28;21024;-86
2023/08/18 00:07:52;;;;;;;7.20;5.90;;;21.60;99.90;;;;;;4991651;28;20203;-85
2023/08/18 00:10:18;;;;;;;7.57;6.77;;;21.50;99.90;;;;;;5010452;28;20171;-83
2023/08/18 00:12:43;;;;;;;9.60;5.60;;;21.20;99.90;;;;;;4993027;28;20745;-83
2023/08/18 00:15:09;;;;;;;9.27;5.23;;;21.10;99.90;;;;;;5010600;28;20191;-82
2023/08/18 00:17:35;;;;;;;9.03;5.40;;;21.00;99.90;;;;;;5004950;28;20310;-83
2023/08/18 00:20:02;;;;;;;11.50;5.87;;;21.00;99.90;;;;;;4988529;28;20182;-83
2023/08/18 00:22:28;;;;;;;11.03;5.13;;;21.00;99.90;;;;;;4992221;28;20467;-84
2023/08/18 00:24:55;;;;;;;7.70;4.90;;;21.00;99.90;;;;;;4985287;28;20446;-83
2023/08/18 00:27:21;;;;;;;8.77;5.43;;;21.00;99.90;;;;;;5002852;28;20453;-83
2023/08/18 00:29:47;;;;;;;10.60;6.40;;;21.00;99.90;;;;;;5009553;28;22159;-85
2023/08/18 00:32:13;;;;;;;7.53;5.80;;;21.00;99.90;;;;;;4991031;28;20186;-83
2023/08/18 00:34:39;;;;;;;10.40;4.77;;;21.10;99.90;;;;;;4989602;28;20187;-85
2023/08/18 00:37:04;;;;;;;6.67;4.37;;;21.20;99.90;;;;;;5001404;28;20489;-83
2023/08/18 00:39:30;;;;;;;5.70;4.90;;;21.10;99.90;;;;;;5004142;28;20211;-84
2023/08/18 00:41:55;;;;;;;8.33;4.90;;;21.10;99.90;;;;;;5002778;28;20202;-83
2023/08/18 00:44:21;;;;;;;5.30;4.60;;;21.00;99.90;;;;;;4984143;28;20178;-83
2023/08/18 00:46:47;;;;;;;15.93;5.20;;;21.10;99.90;;;;;;5000846;28;20202;-81
2023/08/18 00:49:16;;;;;;;8.97;4.53;;;20.90;99.90;;;;;;4988533;28;20183;-85
2023/08/18 00:51:41;;;;;;;6.70;5.00;;;20.80;99.90;;;;;;5001049;28;20528;-83
2023/08/18 00:54:08;;;;;;;4.73;4.33;;;20.60;99.90;;;;;;5002596;28;20437;-85
2023/08/18 00:56:33;;;;;;;8.50;6.30;;;20.60;99.90;;;;;;5000342;28;20202;-83
2023/08/18 00:58:59;;;;;;;9.13;4.97;;;20.50;99.90;;;;;;4985197;28;20489;-83
2023/08/18 01:01:28;;;;;;;7.33;6.60;;;20.40;99.90;;;;;;5002905;28;20544;-85
2023/08/18 01:03:54;;;;;;;8.60;5.00;;;20.40;99.90;;;;;;5009232;28;20438;-83
2023/08/18 01:06:20;;;;;;;9.63;4.83;;;20.40;99.90;;;;;;5004249;28;20449;-85
2023/08/18 01:08:46;;;;;;;10.40;5.47;;;20.40;99.90;;;;;;4996402;28;20532;-86
2023/08/18 01:11:36;;;;;;;7.50;4.73;;;20.50;99.90;;;;;;4996972;28;20215;-83
2023/08/18 01:14:14;;;;;;;10.33;5.87;;;20.40;99.90;;;;;;4993045;28;20186;-82
2023/08/18 01:16:45;;;;;;;9.60;5.63;;;20.30;99.90;;;;;;5009209;28;20543;-83
2023/08/18 01:19:14;;;;;;;8.63;5.10;;;20.20;99.90;;;;;;4985331;28;20551;-83
2023/08/18 01:21:41;;;;;;;8.00;5.90;;;20.10;99.90;;;;;;5001378;28;20441;-80
2023/08/18 01:24:06;;;;;;;8.20;5.63;;;19.90;99.90;;;;;;4984629;28;21021;-82
2023/08/18 01:26:32;;;;;;;7.30;5.47;;;20.00;99.90;;;;;;4986642;28;20460;-83
2023/08/18 01:28:57;;;;;;;9.53;4.87;;;20.00;99.90;;;;;;5001071;28;20182;-83
2023/08/18 01:31:30;;;;;;;6.70;5.00;;;20.00;99.90;;;;;;5001215;28;20228;-83
2023/08/18 01:34:04;;;;;;;5.90;5.23;;;20.00;99.90;;;;;;4990542;28;20183;-83
2023/08/18 01:36:35;;;;;;;4.70;4.17;;;20.00;99.90;;;;;;4985490;28;20458;-84
2023/08/18 01:39:02;;;;;;;9.67;5.57;;;19.90;99.90;;;;;;5001924;28;20442;-83
2023/08/18 01:41:29;;;;;;;7.93;4.37;;;19.90;99.90;;;;;;4987531;28;20441;-84
2023/08/18 01:43:55;;;;;;;5.87;4.67;;;20.00;99.90;;;;;;4985054;28;20507;-83
2023/08/18 01:46:20;;;;;;;12.30;5.00;;;20.00;99.90;;;;;;4987371;28;20460;-83
2023/08/18 01:48:46;;;;;;;8.43;5.27;;;20.00;99.90;;;;;;4992308;28;20187;-83
2023/08/18 01:51:12;;;;;;;10.20;4.70;;;20.00;99.90;;;;;;4986777;28;20835;-83
2023/08/18 01:53:37;;;;;;;5.23;4.73;;;20.00;99.90;;;;;;5003702;28;20210;-83
2023/08/18 01:56:03;;;;;;;9.50;5.23;;;20.10;99.90;;;;;;4977422;28;20193;-84
2023/08/18 01:58:29;;;;;;;6.43;4.73;;;20.10;99.90;;;;;;4985155;28;20288;-84
2023/08/18 02:00:57;;;;;;;5.90;4.40;;;20.10;99.90;;;;;;4985083;28;20190;-83
2023/08/18 02:03:23;;;;;;;75.47;8.33;;;20.10;99.90;;;;;;4983458;28;20254;-83
2023/08/18 02:05:52;;;;;;;304.10;156.73;;;20.10;99.90;;;;;;4987294;28;20445;-85
2023/08/18 02:08:17;;;;;;;48.17;9.93;;;20.10;99.90;;;;;;4990042;28;20937;-83
2023/08/18 02:10:43;;;;;;;7.87;5.80;;;19.90;99.90;;;;;;5008023;28;20445;-83
2023/08/18 02:13:09;;;;;;;7.90;4.70;;;19.70;99.90;;;;;;5013720;28;20250;-86
2023/08/18 02:15:34;;;;;;;6.20;4.50;;;19.50;99.90;;;;;;5004718;28;21171;-84
2023/08/18 02:18:00;;;;;;;9.70;5.03;;;19.50;99.90;;;;;;4982748;28;20581;-82
2023/08/18 02:20:25;;;;;;;8.00;5.13;;;19.60;99.90;;;;;;4991529;28;20247;-84
2023/08/18 02:22:51;;;;;;;6.93;4.43;;;19.80;99.90;;;;;;5003318;28;20269;-82
2023/08/18 02:25:16;;;;;;;6.53;5.03;;;19.80;99.90;;;;;;4991840;28;20182;-83
2023/08/18 02:27:42;;;;;;;6.50;5.80;;;19.80;99.90;;;;;;4985475;28;22229;-83
2023/08/18 02:30:08;;;;;;;7.80;4.53;;;19.70;99.90;;;;;;5002518;28;20556;-85
2023/08/18 02:32:34;;;;;;;6.40;4.30;;;19.60;99.90;;;;;;4999210;28;20178;-84
2023/08/18 02:34:59;;;;;;;12.90;5.13;;;19.60;99.90;;;;;;4987382;28;20532;-85
2023/08/18 02:37:25;;;;;;;6.73;4.53;;;19.60;99.90;;;;;;4988504;28;20221;-83
2023/08/18 02:39:50;;;;;;;6.23;4.80;;;19.50;99.90;;;;;;5009379;28;20190;-85
2023/08/18 02:42:16;;;;;;;8.10;4.43;;;19.50;99.90;;;;;;4984874;28;20217;-83
2023/08/18 02:44:42;;;;;;;7.30;4.27;;;19.50;99.90;;;;;;4980191;28;20262;-84
2023/08/18 02:47:09;;;;;;;11.07;4.40;;;19.40;99.90;;;;;;4998491;28;20446;-83
2023/08/18 02:49:35;;;;;;;6.87;4.17;;;19.30;99.90;;;;;;4984915;28;21174;-82
2023/08/18 02:52:01;;;;;;;10.67;5.20;;;19.30;99.90;;;;;;4987972;28;20447;-84
2023/08/18 02:54:26;;;;;;;9.80;4.60;;;19.20;99.90;;;;;;4986630;28;20189;-83
2023/08/18 02:56:52;;;;;;;10.83;5.30;;;19.10;99.90;;;;;;5004522;28;20501;-84
2023/08/18 02:59:18;;;;;;;7.53;4.80;;;19.10;99.90;;;;;;4987803;28;20175;-84
2023/08/18 03:01:44;;;;;;;9.80;4.30;;;19.10;99.90;;;;;;5000343;28;20274;-83
2023/08/18 03:04:10;;;;;;;5.60;4.00;;;19.30;99.90;;;;;;4988521;28;20174;-82
2023/08/18 03:06:35;;;;;;;9.13;4.33;;;19.40;99.90;;;;;;4992820;28;20469;-84
2023/08/18 03:09:01;;;;;;;4.17;3.30;;;19.40;99.90;;;;;;5008273;28;20181;-83
2023/08/18 03:11:27;;;;;;;5.90;3.60;;;19.40;99.90;;;;;;5010556;28;20278;-83
2023/08/18 03:13:52;;;;;;;8.37;3.90;;;19.40;99.90;;;;;;4990870;28;20933;-82
2023/08/18 03:16:18;;;;;;;6.23;4.40;;;19.30;99.90;;;;;;5002657;28;20485;-83
2023/08/18 03:18:45;;;;;;;3.90;3.10;;;19.40;99.90;;;;;;4987811;28;20191;-83
2023/08/18 03:21:11;;;;;;;6.60;4.33;;;19.30;99.90;;;;;;4992297;28;20277;-84
2023/08/18 03:23:36;;;;;;;9.27;4.43;;;19.40;99.90;;;;;;4995037;28;20553;-83
2023/08/18 03:26:04;;;;;;;6.20;3.90;;;19.40;99.90;;;;;;5016371;28;20218;-84
2023/08/18 03:28:32;;;;;;;225.23;26.60;;;19.40;99.90;;;;;;5006699;28;20650;-87
2023/08/18 03:31:02;;;;;;;501.67;46.53;;;19.40;99.90;;;;;;4990954;28;20465;-86
2023/08/18 03:33:28;;;;;;;6.20;4.13;;;19.40;99.90;;;;;;4994926;28;20976;-84
2023/08/18 03:35:54;;;;;;;121.83;12.63;;;19.40;99.90;;;;;;4988701;28;20465;-84
2023/08/18 03:38:20;;;;;;;8.07;4.53;;;19.30;99.90;;;;;;4993877;28;20445;-86
2023/08/18 03:40:46;;;;;;;51.50;6.60;;;19.30;99.90;;;;;;4991214;28;20536;-84
2023/08/18 03:43:12;;;;;;;50.40;6.73;;;19.20;99.90;;;;;;4986479;28;20796;-81
2023/08/18 03:45:38;;;;;;;7.63;4.53;;;19.20;99.90;;;;;;4993723;28;22081;-83
2023/08/18 03:48:04;;;;;;;94.67;56.77;;;19.20;99.90;;;;;;4989492;28;20686;-83
2023/08/18 03:50:29;;;;;;;11.13;4.50;;;19.10;99.90;;;;;;4985964;28;21196;-82
2023/08/18 03:52:55;;;;;;;10.40;4.57;;;19.20;99.90;;;;;;4988985;28;20432;-83
2023/08/18 03:55:21;;;;;;;8.57;5.17;;;19.10;99.90;;;;;;4991804;28;20187;-85
2023/08/18 03:57:46;;;;;;;7.87;4.60;;;19.00;99.90;;;;;;5001852;28;20226;-84
2023/08/18 04:00:12;;;;;;;11.17;4.27;;;19.00;99.90;;;;;;5001437;28;20851;-83
2023/08/18 04:02:38;;;;;;;7.93;4.20;;;19.00;99.90;;;;;;4989257;28;20219;-82
2023/08/18 04:05:04;;;;;;;11.90;4.60;;;19.10;99.90;;;;;;4991907;28;20437;-82
2023/08/18 04:07:32;;;;;;;5.30;4.57;;;19.10;99.90;;;;;;4990118;28;20686;-86
2023/08/18 04:09:58;;;;;;;10.27;4.10;;;19.20;99.90;;;;;;4990978;28;20473;-83
2023/08/18 04:12:23;;;;;;;7.27;3.87;;;19.30;99.90;;;;;;4986234;28;20440;-84
2023/08/18 04:14:49;;;;;;;7.53;3.83;;;19.30;99.90;;;;;;4998748;28;20543;-86
2023/08/18 04:17:14;;;;;;;6.50;3.77;;;19.30;99.90;;;;;;5000239;28;20280;-83
2023/08/18 04:19:40;;;;;;;5.00;4.10;;;19.30;99.90;;;;;;4986253;28;20688;-83
2023/08/18 04:22:05;;;;;;;6.43;4.80;;;19.30;99.90;;;;;;4988953;28;20206;-83
2023/08/18 04:24:31;;;;;;;8.67;4.13;;;19.30;99.90;;;;;;4987459;28;20233;-82
2023/08/18 04:26:59;;;;;;;8.93;4.03;;;19.20;99.90;;;;;;4983858;28;20695;-82
2023/08/18 04:29:26;;;;;;;6.10;4.80;;;19.20;99.90;;;;;;4994044;28;20185;-82
2023/08/18 04:31:52;;;;;;;8.83;4.00;;;19.20;99.90;;;;;;4986648;28;20452;-83
2023/08/18 04:34:17;;;;;;;9.23;5.57;;;19.20;99.90;;;;;;5002621;28;20965;-84
2023/08/18 04:36:43;;;;;;;6.40;4.50;;;19.20;99.90;;;;;;4984915;28;20210;-85
2023/08/18 04:39:10;;;;;;;7.07;4.80;;;19.40;99.90;;;;;;4986230;28;20198;-84
2023/08/18 04:41:37;;;;;;;7.40;4.63;;;19.30;99.90;;;;;;4986640;28;20206;-85
2023/08/18 04:44:03;;;;;;;10.10;5.17;;;19.40;99.90;;;;;;4986385;28;20545;-84
2023/08/18 04:46:29;;;;;;;8.07;5.60;;;19.50;99.90;;;;;;4987825;28;20195;-83
2023/08/18 04:48:55;;;;;;;8.57;5.43;;;19.50;99.90;;;;;;5008261;28;20490;-84
2023/08/18 04:51:20;;;;;;;14.50;4.83;;;19.50;99.90;;;;;;5005448;28;20460;-84
2023/08/18 04:53:46;;;;;;;9.10;5.37;;;19.60;99.90;;;;;;4992067;28;20240;-84
2023/08/18 04:56:11;;;;;;;8.00;4.87;;;19.70;99.90;;;;;;4986844;28;20182;-81
2023/08/18 04:58:37;;;;;;;7.80;5.23;;;19.90;99.90;;;;;;5006540;28;20254;-83
2023/08/18 05:01:04;;;;;;;5.97;4.40;;;20.10;99.90;;;;;;5007215;28;20367;-82
2023/08/18 05:03:29;;;;;;;7.30;4.60;;;20.40;99.90;;;;;;4984988;28;20229;-83
2023/08/18 05:06:10;;;;;;;8.10;4.97;;;20.70;99.90;;;;;;4988097;28;20489;-83
2023/08/18 05:08:36;;;;;;;12.03;5.70;;;21.30;99.90;;;;;;4986783;28;20174;-84
2023/08/18 05:11:05;;;;;;;8.83;4.43;;;22.00;99.90;;;;;;4982762;28;21038;-82
2023/08/18 05:13:31;;;;;;;9.37;4.63;;;22.80;99.90;;;;;;4996705;28;20576;-83
2023/08/18 05:15:57;;;;;;;6.63;4.67;;;23.90;99.90;;;;;;4986219;28;20431;-83
2023/08/18 05:18:23;;;;;;;7.13;4.57;;;25.10;99.90;;;;;;4994038;28;20429;-82
2023/08/18 05:20:49;;;;;;;8.30;4.67;;;25.90;99.90;;;;;;4981355;28;20442;-83
2023/08/18 05:23:16;;;;;;;6.80;3.97;;;26.70;99.90;;;;;;4984550;28;20210;-84
2023/08/18 05:25:47;;;;;;;9.67;3.90;;;27.10;99.90;;;;;;4997452;28;20180;-83
2023/08/18 05:28:13;;;;;;;6.67;4.70;;;27.50;99.90;;;;;;5000463;28;20578;-82
2023/08/18 05:30:44;;;;;;;11.07;4.47;;;28.00;99.90;;;;;;4983814;28;20450;-83
2023/08/18 05:33:10;;;;;;;6.20;4.83;;;27.70;99.90;;;;;;4984614;28;20521;-83
2023/08/18 05:35:35;;;;;;;6.80;4.50;;;27.50;99.90;;;;;;4995943;28;20444;-83
2023/08/18 05:38:01;;;;;;;4.70;4.03;;;27.70;99.90;;;;;;4983251;28;20236;-84
2023/08/18 05:40:26;;;;;;;11.60;3.73;;;27.80;99.90;;;;;;4983301;28;20198;-84
2023/08/18 05:42:52;;;;;;;5.30;4.57;;;28.80;99.90;;;;;;5000125;28;20206;-83
2023/08/18 05:45:17;;;;;;;7.17;4.03;;;29.80;99.90;;;;;;4986856;28;20619;-83
2023/08/18 05:47:43;;;;;;;5.93;3.87;;;30.50;99.90;;;;;;4983417;28;20211;-83
2023/08/18 05:50:11;;;;;;;8.27;3.30;;;30.70;99.90;;;;;;4980541;28;20199;-83
2023/08/18 05:52:36;;;;;;;11.90;3.80;;;31.20;99.90;;;;;;4998004;28;20185;-81
2023/08/18 05:55:04;;;;;;;3.53;2.83;;;31.90;99.90;;;;;;4981662;28;20797;-81
2023/08/18 05:57:30;;;;;;;5.70;3.57;;;32.80;99.90;;;;;;4998874;28;20219;-83
2023/08/18 05:59:55;;;;;;;4.30;3.43;;;33.20;98.70;;;;;;4983995;28;20499;-82
2023/08/18 06:02:21;;;;;;;6.80;3.67;;;33.00;97.30;;;;;;4981541;28;20788;-83
2023/08/18 06:04:46;;;;;;;17.90;5.00;;;32.70;97.00;;;;;;4998674;28;20843;-82
2023/08/18 06:07:12;;;;;;;5.63;3.20;;;32.40;96.80;;;;;;4998124;28;20195;-82
2023/08/18 06:09:37;;;;;;;7.37;3.17;;;32.30;96.70;;;;;;4991100;28;21994;-82
2023/08/18 06:12:03;;;;;;;4.67;3.67;;;32.80;96.40;;;;;;5002948;28;20204;-82
2023/08/18 06:14:29;;;;;;;3.70;3.10;;;32.70;95.40;;;;;;4980654;28;20682;-82
2023/08/18 06:16:54;;;;;;;6.00;4.13;;;32.90;95.10;;;;;;4986136;28;20226;-82
2023/08/18 06:19:20;;;;;;;3.33;3.03;;;32.80;94.70;;;;;;4997085;28;20935;-82
2023/08/18 06:21:45;;;;;;;5.17;3.20;;;33.00;94.80;;;;;;4993977;28;20248;-83
2023/08/18 06:24:11;;;;;;;5.60;4.13;;;33.50;93.80;;;;;;4992011;28;20952;-86
2023/08/18 06:26:37;;;;;;;5.40;3.37;;;34.00;92.80;;;;;;4995368;28;20228;-85
2023/08/18 06:29:03;;;;;;;7.97;3.07;;;34.30;92.00;;;;;;5000242;28;20494;-84
2023/08/18 06:31:28;;;;;;;3.47;3.13;;;34.60;91.00;;;;;;4988941;28;20812;-84
2023/08/18 06:33:55;;;;;;;5.23;2.93;;;34.60;90.50;;;;;;4995895;28;20188;-84
2023/08/18 06:36:21;;;;;;;5.83;3.00;;;34.50;90.40;;;;;;4980975;28;20254;-85
2023/08/18 06:38:46;;;;;;;5.07;3.93;;;34.70;89.50;;;;;;4993692;28;20438;-84
2023/08/18 06:41:12;;;;;;;7.60;3.47;;;35.00;88.10;;;;;;4979535;28;20193;-85
2023/08/18 06:43:37;;;;;;;4.13;3.07;;;35.00;86.50;;;;;;4980492;28;20230;-82
2023/08/18 06:46:05;;;;;;;6.03;3.20;;;35.70;85.40;;;;;;4981068;28;20183;-87
2023/08/18 06:48:31;;;;;;;5.10;3.37;;;35.30;85.80;;;;;;4995726;28;20183;-82
2023/08/18 06:50:56;;;;;;;7.07;3.03;;;36.20;83.00;;;;;;4975841;28;20485;-85
2023/08/18 06:53:23;;;;;;;4.20;3.80;;;36.40;81.50;;;;;;4979733;28;20184;-86
2023/08/18 06:55:49;;;;;;;3.47;2.97;;;36.60;80.30;;;;;;4986964;28;20191;-84
2023/08/18 06:58:15;;;;;;;5.23;3.07;;;36.50;80.00;;;;;;4990812;28;20473;-82
2023/08/18 07:00:40;;;;;;;3.70;3.10;;;36.00;80.00;;;;;;4991805;28;20612;-84
2023/08/18 07:03:06;;;;;;;5.10;3.03;;;35.60;80.30;;;;;;4993375;28;20238;-86
2023/08/18 07:05:31;;;;;;;6.27;3.10;;;35.60;81.30;;;;;;4989121;28;20184;-83
2023/08/18 07:07:57;;;;;;;6.80;3.03;;;35.10;79.40;;;;;;4987950;28;20700;-82
2023/08/18 07:10:22;;;;;;;3.30;3.00;;;34.90;81.60;;;;;;5004518;28;20615;-83
2023/08/18 07:12:48;;;;;;;4.40;2.70;;;34.80;82.00;;;;;;4989598;28;20274;-84
2023/08/18 07:15:14;;;;;;;4.70;3.30;;;35.20;82.70;;;;;;4987947;28;20181;-84
2023/08/18 07:17:39;;;;;;;6.17;3.30;;;35.20;82.60;;;;;;4986195;28;20214;-84
2023/08/18 07:20:09;;;;;;;4.10;3.50;;;35.80;80.80;;;;;;4984488;28;20198;-85
2023/08/18 07:22:35;;;;;;;4.70;3.53;;;35.80;78.60;;;;;;4996552;28;20206;-83
2023/08/18 07:25:00;;;;;;;3.43;2.53;;;34.90;79.30;;;;;;4992660;28;20425;-83
2023/08/18 07:27:37;;;;;;;6.03;3.40;;;34.80;80.60;;;;;;5008032;28;20209;-84
2023/08/18 07:30:04;;;;;;;3.50;3.20;;;35.00;81.80;;;;;;5022614;28;21126;-83
2023/08/18 07:32:30;;;;;;;2.57;2.37;;;35.30;78.90;;;;;;5001350;28;21056;-82
2023/08/18 07:34:55;;;;;;;11.63;3.53;;;35.10;78.30;;;;;;5000897;28;20456;-84
2023/08/18 07:37:22;;;;;;;6.23;3.73;;;35.50;81.00;;;;;;4996366;28;20260;-80
2023/08/18 07:39:48;;;;;;;3.73;3.40;;;36.00;78.50;;;;;;5015098;28;21183;-84
2023/08/18 07:42:14;;;;;;;5.10;3.67;;;35.70;77.00;;;;;;4993090;28;20465;-85
2023/08/18 07:44:40;;;;;;;6.07;3.20;;;35.80;78.50;;;;;;4985910;28;20432;-85
2023/08/18 07:47:05;;;;;;;3.03;2.73;;;35.70;76.40;;;;;;4986290;28;21280;-83
2023/08/18 07:49:32;;;;;;;5.50;3.07;;;35.20;77.40;;;;;;4976956;28;20187;-84
2023/08/18 07:51:58;;;;;;;7.53;2.83;;;35.10;80.00;;;;;;4990466;28;20176;-84
2023/08/18 07:54:24;;;;;;;8.27;2.73;;;35.50;78.70;;;;;;4983817;28;20517;-83
2023/08/18 07:56:50;;;;;;;3.80;3.40;;;36.00;77.10;;;;;;4984161;28;20468;-86
2023/08/18 07:59:15;;;;;;;6.00;3.00;;;36.00;75.40;;;;;;4989075;28;20231;-84
2023/08/18 08:01:41;;;;;;;3.23;2.93;;;36.70;76.70;;;;;;5004108;28;20187;-82
2023/08/18 08:04:06;;;;;;;6.03;3.90;;;37.40;74.10;;;;;;4995253;28;21217;-84
2023/08/18 08:06:32;;;;;;;4.73;2.90;;;36.50;69.40;;;;;;4988666;28;20209;-84
2023/08/18 08:08:58;;;;;;;4.43;2.37;;;36.50;70.70;;;;;;4984988;28;20675;-84
2023/08/18 08:11:23;;;;;;;4.73;3.10;;;36.70;68.50;;;;;;4987773;28;20181;-83
2023/08/18 08:13:49;;;;;;;5.30;3.23;;;37.20;68.70;;;;;;4989379;28;20848;-84
2023/08/18 08:16:14;;;;;;;4.07;2.57;;;37.70;67.10;;;;;;4988830;28;20328;-85
2023/08/18 08:18:40;;;;;;;54.53;4.20;;;38.20;66.10;;;;;;4988472;28;20240;-86
2023/08/18 08:21:06;;;;;;;4.10;2.50;;;37.40;61.40;;;;;;4985484;28;20244;-85
2023/08/18 08:23:31;;;;;;;2.90;1.90;;;37.00;65.60;;;;;;4986683;28;20263;-83
2023/08/18 08:25:57;;;;;;;118.23;23.30;;;38.50;62.50;;;;;;4988357;28;20524;-84
2023/08/18 08:28:23;;;;;;;4.00;2.20;;;38.40;63.20;;;;;;4982560;28;20218;-83
2023/08/18 08:30:48;;;;;;;6.50;2.60;;;38.80;59.20;;;;;;4996195;28;20173;-82
2023/08/18 08:33:14;;;;;;;3.73;2.37;;;38.30;58.50;;;;;;5007070;28;20182;-81
2023/08/18 08:35:39;;;;;;;6.70;2.70;;;37.70;58.20;;;;;;5007743;28;20666;-84
2023/08/18 08:38:05;;;;;;;2.40;1.90;;;37.50;61.40;;;;;;4992509;28;20231;-84
2023/08/18 08:40:31;;;;;;;2.37;1.83;;;37.20;61.60;;;;;;4991728;28;20860;-84
2023/08/18 08:42:58;;;;;;;3.23;2.93;;;37.50;59.80;;;;;;4992845;28;20856;-85
2023/08/18 08:45:24;;;;;;;2.80;2.33;;;37.20;59.50;;;;;;5002954;28;20187;-84
2023/08/18 08:47:51;;;;;;;5.30;3.10;;;36.50;59.60;;;;;;4999132;28;20468;-83
2023/08/18 08:50:17;;;;;;;2.60;2.10;;;36.00;60.60;;;;;;4987558;28;20189;-86
2023/08/18 08:52:48;;;;;;;4.47;2.47;;;35.00;62.60;;;;;;5015553;28;20455;-84
2023/08/18 08:55:15;;;;;;;2.63;2.43;;;34.50;65.40;;;;;;5006298;28;20444;-84
2023/08/18 08:57:41;;;;;;;3.80;2.27;;;34.30;65.70;;;;;;5004410;28;21184;-84
2023/08/18 09:00:09;;;;;;;3.10;2.03;;;34.50;67.20;;;;;;5004438;28;20448;-85
2023/08/18 09:02:35;;;;;;;4.13;2.03;;;34.90;64.80;;;;;;5004402;28;20198;-87
2023/08/18 09:05:00;;;;;;;5.73;3.80;;;35.40;65.90;;;;;;5001976;28;21945;-83
2023/08/18 09:07:28;;;;;;;3.40;2.60;;;35.80;61.30;;;;;;4990176;28;20447;-86
2023/08/18 09:09:53;;;;;;;2.33;1.97;;;36.10;61.00;;;;;;5004047;28;20176;-85
2023/08/18 09:12:28;;;;;;;2.20;2.00;;;36.20;60.80;;;;;;4998405;28;20474;-84
2023/08/18 09:14:53;;;;;;;5.00;2.77;;;36.00;62.30;;;;;;5012316;28;20252;-85
2023/08/18 09:17:21;;;;;;;4.07;2.30;;;35.80;60.50;;;;;;4986808;28;20466;-85
2023/08/18 09:19:48;;;;;;;4.53;2.23;;;35.60;61.80;;;;;;4986186;28;20194;-84
2023/08/18 09:22:14;;;;;;;5.13;2.87;;;35.20;61.80;;;;;;5004796;28;20857;-84
2023/08/18 09:24:40;;;;;;;3.70;2.27;;;35.40;63.00;;;;;;4988811;28;20445;-84
2023/08/18 09:27:12;;;;;;;4.37;1.83;;;35.60;62.60;;;;;;5005680;28;21497;-84
2023/08/18 09:29:37;;;;;;;3.27;2.03;;;36.30;60.00;;;;;;4987910;28;20259;-85
2023/08/18 09:32:03;;;;;;;3.40;2.73;;;36.40;60.20;;;;;;4986614;28;20763;-83
2023/08/18 09:34:31;;;;;;;5.73;2.40;;;35.70;61.20;;;;;;4991893;28;20189;-84
2023/08/18 09:36:57;;;;;;;3.80;2.47;;;35.60;61.90;;;;;;5002474;28;20213;-83
2023/08/18 09:39:25;;;;;;;5.20;2.53;;;35.60;62.60;;;;;;4981198;28;20451;-85
2023/08/18 09:41:52;;;;;;;6.97;2.57;;;36.20;61.50;;;;;;4989993;28;20177;-85
2023/08/18 09:44:19;;;;;;;4.77;3.07;;;35.70;58.90;;;;;;4987380;28;20439;-82
2023/08/18 09:46:59;;;;;;;2.93;2.33;;;36.20;60.00;;;;;;5002662;28;20452;-82
2023/08/18 09:49:25;;;;;;;4.40;2.77;;;36.50;59.30;;;;;;5003988;28;20433;-82
2023/08/18 09:52:05;;;;;;;3.20;2.50;;;36.50;62.50;;;;;;4985444;28;20425;-83
2023/08/18 09:54:38;;;;;;;4.63;2.70;;;37.20;59.60;;;;;;5001213;28;20525;-84
2023/08/18 09:57:09;;;;;;;3.53;2.03;;;37.50;59.30;;;;;;4997126;28;20477;-85
2023/08/18 09:59:40;;;;;;;6.47;3.00;;;37.30;58.60;;;;;;4984227;28;20531;-84
2023/08/18 10:02:07;;;;;;;7.90;2.57;;;37.10;59.30;;;;;;4985539;28;21231;-85
2023/08/18 10:04:38;;;;;;;5.63;2.30;;;36.70;58.40;;;;;;5000972;28;20514;-84
2023/08/18 10:07:04;;;;;;;5.13;2.30;;;36.00;59.20;;;;;;5004210;28;22651;-83
2023/08/18 10:09:33;;;;;;;5.37;2.53;;;35.40;59.70;;;;;;4985725;28;20503;-84
2023/08/18 10:12:01;;;;;;;7.43;2.27;;;34.80;61.70;;;;;;4987349;28;20438;-86
2023/08/18 10:14:27;;;;;;;3.90;2.20;;;35.10;60.50;;;;;;5006283;28;20451;-85
2023/08/18 10:16:53;;;;;;;3.17;2.07;;;35.30;61.60;;;;;;4990212;28;20464;-84
2023/08/18 10:20:00;;;;;;;6.90;2.80;;;36.00;57.30;;;;;;5002477;28;20436;-85
2023/08/18 10:22:27;;;;;;;2.70;2.27;;;35.90;59.50;;;;;;4985620;28;21288;-85
2023/08/18 10:24:54;;;;;;;2.53;2.33;;;35.70;60.30;;;;;;5000659;28;20440;-86
2023/08/18 10:27:28;;;;;;;6.30;2.60;;;35.20;63.20;;;;;;4986766;28;20569;-87
2023/08/18 10:30:00;;;;;;;4.50;3.10;;;34.20;67.00;;;;;;4997119;28;20442;-83
2023/08/18 10:32:29;;;;;;;4.27;3.33;;;33.10;71.10;;;;;;4997277;28;20484;-86
2023/08/18 10:35:17;;;;;;;4.83;2.50;;;32.40;71.00;;;;;;4980098;28;20450;-83
2023/08/18 10:37:43;;;;;;;4.30;2.97;;;31.60;75.50;;;;;;4997278;28;20760;-85
2023/08/18 10:40:09;;;;;;;5.70;3.00;;;31.20;75.50;;;;;;4999454;28;20482;-84
2023/08/18 10:42:36;;;;;;;5.83;3.40;;;30.90;76.30;;;;;;5019213;28;20549;-83
2023/08/18 10:45:06;;;;;;;3.17;1.90;;;30.70;77.20;;;;;;4987551;28;20442;-85
2023/08/18 10:47:33;;;;;;;3.33;2.50;;;30.60;77.00;;;;;;4991847;28;20460;-85
2023/08/18 10:49:59;;;;;;;3.03;2.53;;;30.60;77.00;;;;;;4997653;28;20625;-84
2023/08/18 10:52:28;;;;;;;4.07;2.40;;;30.40;79.50;;;;;;5001216;28;20972;-83
2023/08/18 10:54:54;;;;;;;4.40;2.67;;;30.40;79.00;;;;;;4984873;28;20442;-84
2023/08/18 10:57:20;;;;;;;5.53;3.37;;;30.40;80.80;;;;;;5004716;28;21119;-84
2023/08/18 10:59:45;;;;;;;4.70;2.27;;;30.40;79.50;;;;;;4984182;28;20431;-84
2023/08/18 11:02:11;;;;;;;3.93;2.30;;;30.60;79.00;;;;;;4983498;28;20214;-84
2023/08/18 11:04:37;;;;;;;3.37;2.17;;;30.50;79.20;;;;;;5001117;28;20199;-85
2023/08/18 11:07:05;;;;;;;3.43;2.30;;;30.50;76.00;;;;;;4989793;28;20600;-83
2023/08/18 11:09:31;;;;;;;5.07;1.93;;;30.50;78.10;;;;;;5003258;28;20208;-87
2023/08/18 11:11:57;;;;;;;4.40;2.43;;;30.40;75.10;;;;;;4996358;28;20436;-82
2023/08/18 11:14:22;;;;;;;3.17;1.63;;;30.40;77.20;;;;;;4988076;28;20425;-84
2023/08/18 11:16:48;;;;;;;4.00;2.17;;;30.40;77.30;;;;;;4979318;28;20284;-83
2023/08/18 11:19:14;;;;;;;2.73;2.47;;;30.50;75.10;;;;;;4988683;28;20193;-85
2023/08/18 11:21:40;;;;;;;6.23;2.17;;;30.40;75.70;;;;;;4982713;28;20175;-82
2023/08/18 11:24:08;;;;;;;2.97;2.20;;;30.30;77.80;;;;;;4992051;28;20464;-84
2023/08/18 11:26:36;;;;;;;2.47;1.80;;;30.50;76.90;;;;;;4982189;28;21119;-87
2023/08/18 11:29:03;;;;;;;4.20;2.10;;;30.50;75.90;;;;;;4997175;28;20440;-85
2023/08/18 11:31:29;;;;;;;3.33;2.10;;;30.50;78.70;;;;;;4983628;28;20430;-82
2023/08/18 11:33:55;;;;;;;3.27;2.03;;;30.60;78.40;;;;;;4983006;28;20916;-86
2023/08/18 11:36:21;;;;;;;4.57;2.50;;;30.60;78.40;;;;;;4998294;28;20207;-85
2023/08/18 11:38:49;;;;;;;4.87;2.00;;;30.70;78.30;;;;;;5001667;28;20446;-86
2023/08/18 11:41:14;;;;;;;4.83;2.20;;;30.80;78.50;;;;;;4991692;28;20197;-86
2023/08/18 11:43:41;;;;;;;2.83;2.13;;;30.90;79.00;;;;;;5003072;28;20494;-85
2023/08/18 11:46:07;;;;;;;4.10;2.27;;;31.30;77.50;;;;;;5007799;28;20254;-90
2023/08/18 11:48:33;;;;;;;5.53;2.60;;;31.00;80.30;;;;;;5005832;28;20437;-83
2023/08/18 11:50:59;;;;;;;4.60;2.10;;;31.00;77.90;;;;;;5030148;28;20463;-83
2023/08/18 11:53:25;;;;;;;6.67;2.50;;;31.00;77.30;;;;;;5021857;28;20180;-84
2023/08/18 11:55:51;;;;;;;3.10;2.20;;;31.10;76.20;;;;;;5029816;28;20443;-84
2023/08/18 11:58:21;;;;;;;3.10;2.27;;;31.10;77.80;;;;;;4997981;28;20459;-87
2023/08/18 12:00:48;;;;;;;6.67;2.30;;;31.10;79.50;;;;;;5009987;28;20468;-85
2023/08/18 12:03:25;;;;;;;2.47;2.00;;;31.60;78.90;;;;;;5000733;28;20557;-84
2023/08/18 12:05:53;;;;;;;2.67;2.30;;;31.10;78.60;;;;;;4992512;28;20439;-84
2023/08/18 12:08:19;;;;;;;3.37;2.30;;;31.20;82.30;;;;;;5002839;28;21000;-84
2023/08/18 12:10:48;;;;;;;6.37;2.40;;;31.30;80.20;;;;;;5000942;28;20441;-86
2023/08/18 12:13:13;;;;;;;2.97;2.23;;;31.50;80.40;;;;;;5018117;28;20224;-86
2023/08/18 12:15:39;;;;;;;6.00;2.80;;;31.80;83.70;;;;;;4996730;28;20442;-86
2023/08/18 12:18:05;;;;;;;2.03;1.83;;;31.80;82.50;;;;;;4987801;28;20261;-86
2023/08/18 12:20:31;;;;;;;4.77;2.30;;;32.00;77.30;;;;;;4995770;28;20193;-85
2023/08/18 12:22:57;;;;;;;4.17;2.60;;;32.00;75.70;;;;;;4995163;28;20467;-86
2023/08/18 12:25:23;;;;;;;2.80;1.90;;;32.00;75.70;;;;;;4998104;28;20454;-85
2023/08/18 12:27:49;;;;;;;5.47;2.13;;;32.00;73.10;;;;;;5003613;28;20248;-85
2023/08/18 12:30:16;;;;;;;4.50;2.37;;;31.70;75.80;;;;;;5000918;28;20246;-84
2023/08/18 12:32:47;;;;;;;4.27;2.00;;;31.80;76.50;;;;;;5005475;28;21006;-84
2023/08/18 12:35:12;;;;;;;3.90;2.20;;;32.00;73.60;;;;;;5008329;28;20433;-85
2023/08/18 12:37:38;;;;;;;4.93;2.13;;;32.00;70.80;;;;;;5007860;28;20455;-85
2023/08/18 12:40:06;;;;;;;2.80;1.90;;;31.90;69.70;;;;;;5006042;28;20187;-85
2023/08/18 12:42:32;;;;;;;3.60;1.50;;;31.70;72.30;;;;;;4987764;28;20982;-87